Time;durP1;ratioP1;P1;durP2;ratioP2;P2;SDS_P1;SDS_P2;PMS_P1;PMS_P2;Temp;Humidity;BMP_temperature;BMP_pressure;BME280_temperature;BME280_humidity;BME280_pressure;Samples;Min_cycle;Max_cycle;Signal;HPM_P1;HPM_P2
2022/10/01 00:00:10;;;;;;;9.15;5.68;;;;;;;-147.98;100.00;69253.78;5066312;28;20443;-84
2022/10/01 00:02:43;;;;;;;13.57;5.82;;;;;;;-147.98;100.00;69253.78;5069635;28;20429;-84
2022/10/01 00:05:17;;;;;;;8.93;5.70;;;;;;;-147.98;100.00;69253.78;5057724;28;20417;-83
2022/10/01 00:07:50;;;;;;;9.13;5.47;;;;;;;-147.98;100.00;69253.78;5046142;28;20417;-84
2022/10/01 00:10:25;;;;;;;9.10;5.75;;;;;;;-147.98;100.00;69253.78;5074928;28;20865;-84
2022/10/01 00:12:58;;;;;;;8.35;5.32;;;;;;;-147.98;100.00;69253.78;5037055;28;20810;-84
2022/10/01 00:15:32;;;;;;;9.17;5.40;;;;;;;-147.98;100.00;69253.78;5051752;28;20419;-84
2022/10/01 00:18:00;;;;;;;10.40;5.65;;;;;;;-147.98;100.00;69253.78;5063708;28;20415;-84
2022/10/01 00:20:34;;;;;;;9.32;5.75;;;;;;;-147.98;100.00;69253.78;5060928;28;20791;-84
2022/10/01 00:23:07;;;;;;;8.95;5.63;;;;;;;-147.98;100.00;69253.78;5061329;28;20422;-83
2022/10/01 00:25:42;;;;;;;10.13;5.20;;;;;;;-147.98;100.00;69253.78;5059371;28;20423;-84
2022/10/01 00:28:11;;;;;;;9.93;5.32;;;;;;;-147.98;100.00;69253.78;5064818;28;20420;-84
2022/10/01 00:30:47;;;;;;;10.40;5.55;;;;;;;-147.98;100.00;69253.78;5054150;28;20427;-84
2022/10/01 00:33:21;;;;;;;8.60;5.45;;;;;;;-147.98;100.00;69253.78;5070641;28;20411;-84
2022/10/01 00:35:54;;;;;;;10.48;5.40;;;;;;;-147.98;100.00;69253.78;5061398;28;20425;-84
2022/10/01 00:38:22;;;;;;;9.25;5.18;;;;;;;-147.98;100.00;69253.78;5051297;28;20462;-83
2022/10/01 00:40:57;;;;;;;7.80;5.20;;;;;;;-147.98;100.00;69253.78;5046677;28;20429;-84
2022/10/01 00:43:32;;;;;;;9.20;5.33;;;;;;;-147.98;100.00;69253.78;5067971;28;20423;-83
2022/10/01 00:46:10;;;;;;;8.68;5.15;;;;;;;-147.98;100.00;69253.78;5046400;28;20418;-84
2022/10/01 00:48:50;;;;;;;10.32;5.30;;;;;;;-147.98;100.00;69253.78;5067843;28;20416;-85
2022/10/01 00:51:26;;;;;;;8.18;5.10;;;;;;;-147.98;100.00;69253.78;5051468;28;20438;-84
2022/10/01 00:54:05;;;;;;;8.10;5.13;;;;;;;-147.98;100.00;69253.78;5051489;28;20419;-83
2022/10/01 00:56:41;;;;;;;8.77;5.47;;;;;;;-147.98;100.00;69253.78;5044326;28;20498;-84
2022/10/01 00:59:15;;;;;;;9.07;4.93;;;;;;;-147.98;100.00;69253.78;5065788;28;20424;-84
2022/10/01 01:01:43;;;;;;;8.18;4.75;;;;;;;-147.98;100.00;69253.78;5050831;28;20413;-84
2022/10/01 01:04:16;;;;;;;9.07;5.20;;;;;;;-147.98;100.00;69253.78;5047297;28;20425;-84
2022/10/01 01:06:55;;;;;;;8.37;5.10;;;;;;;-147.98;100.00;69253.78;5043246;28;20424;-83
2022/10/01 01:09:31;;;;;;;8.93;5.00;;;;;;;-147.98;100.00;69253.78;5048723;28;20428;-83
2022/10/01 01:12:15;;;;;;;10.95;5.32;;;;;;;-147.98;100.00;69253.78;5076206;28;20908;-84
2022/10/01 01:14:59;;;;;;;9.60;5.35;;;;;;;-147.98;100.00;69253.78;5063369;28;20415;-84
2022/10/01 01:17:39;;;;;;;8.73;5.25;;;;;;;-147.98;100.00;69253.78;5084840;28;20423;-84
2022/10/01 01:20:37;;;;;;;9.38;5.40;;;;;;;-147.98;100.00;69253.78;5052396;28;20911;-84
2022/10/01 01:23:30;;;;;;;8.63;5.32;;;;;;;-147.98;100.00;69253.78;5059626;28;20455;-83
2022/10/01 01:26:16;;;;;;;8.45;5.05;;;;;;;-147.98;100.00;69253.78;5058033;28;20412;-84
2022/10/01 01:28:54;;;;;;;9.20;5.32;;;;;;;-147.98;100.00;69253.78;5063051;28;20900;-84
2022/10/01 01:31:33;;;;;;;9.43;5.50;;;;;;;-147.98;100.00;69253.78;5063666;28;20915;-83
2022/10/01 01:34:11;;;;;;;11.63;5.63;;;;;;;-147.98;100.00;69253.78;5041957;28;20416;-83
2022/10/01 01:36:44;;;;;;;8.52;5.15;;;;;;;-147.98;100.00;69253.78;5060761;28;20424;-84
2022/10/01 01:39:16;;;;;;;10.07;5.30;;;;;;;-147.98;100.00;69253.78;5050929;28;20415;-84
2022/10/01 01:41:55;;;;;;;10.00;5.13;;;;;;;-147.98;100.00;69253.78;5061265;28;20904;-84
2022/10/01 01:44:33;;;;;;;7.90;5.13;;;;;;;-147.98;100.00;69253.78;5068776;28;20912;-83
2022/10/01 01:47:10;;;;;;;9.00;5.10;;;;;;;-147.98;100.00;69253.78;5056214;28;20915;-84
2022/10/01 01:49:43;;;;;;;8.63;4.80;;;;;;;-147.98;100.00;69253.78;5072886;28;20423;-84
2022/10/01 01:52:17;;;;;;;8.13;4.63;;;;;;;-147.98;100.00;69253.78;5065563;28;20424;-84
2022/10/01 01:54:51;;;;;;;10.10;5.00;;;;;;;-147.98;100.00;69253.78;5060255;28;21118;-83
2022/10/01 01:57:20;;;;;;;8.90;5.00;;;;;;;-147.98;100.00;69253.78;5081803;28;20872;-84
2022/10/01 01:59:55;;;;;;;7.75;4.68;;;;;;;-147.98;100.00;69253.78;5047697;28;20425;-83
2022/10/01 02:02:27;;;;;;;10.35;5.47;;;;;;;-147.98;100.00;69253.78;5070547;28;20400;-83
2022/10/01 02:05:03;;;;;;;9.45;6.00;;;;;;;-147.98;100.00;69253.78;5062091;28;20425;-83
2022/10/01 02:08:26;;;;;;;9.25;4.78;;;;;;;-147.98;100.00;69253.78;5036992;28;20440;-84
2022/10/01 02:11:14;;;;;;;7.40;4.45;;;;;;;-147.98;100.00;69253.78;5019739;28;21101;-84
2022/10/01 02:13:56;;;;;;;10.32;4.70;;;;;;;-147.98;100.00;69253.78;5071762;28;20919;-84
2022/10/01 02:16:41;;;;;;;7.53;4.57;;;;;;;-147.98;100.00;69253.78;5053235;28;20419;-84
2022/10/01 02:19:15;;;;;;;9.27;4.35;;;;;;;-147.98;100.00;69253.78;5071446;28;21068;-84
2022/10/01 02:21:58;;;;;;;8.25;4.63;;;;;;;-147.98;100.00;69253.78;5068001;28;20746;-83
2022/10/01 02:24:37;;;;;;;9.38;4.20;;;;;;;-147.98;100.00;69253.78;5068509;28;20428;-84
2022/10/01 02:27:17;;;;;;;8.65;4.60;;;;;;;-147.98;100.00;69253.78;5081951;28;20459;-84
2022/10/01 02:29:52;;;;;;;8.77;4.60;;;;;;;-147.98;100.00;69253.78;5048992;28;20430;-83
2022/10/01 02:32:28;;;;;;;6.87;4.30;;;;;;;-147.98;100.00;69253.78;5069869;28;20462;-84
2022/10/01 02:35:03;;;;;;;10.30;4.95;;;;;;;-147.98;100.00;69253.78;5066481;28;20417;-84
2022/10/01 02:37:39;;;;;;;7.47;4.60;;;;;;;-147.98;100.00;69253.78;5047957;28;20423;-84
2022/10/01 02:40:17;;;;;;;6.80;4.10;;;;;;;-147.98;100.00;69253.78;5064346;28;20428;-84
2022/10/01 02:42:54;;;;;;;7.63;4.50;;;;;;;-147.98;100.00;69253.78;5051789;28;20424;-85
2022/10/01 02:45:32;;;;;;;7.43;4.50;;;;;;;-147.98;100.00;69253.78;5068593;28;20420;-85
2022/10/01 02:48:09;;;;;;;11.93;4.97;;;;;;;-147.98;100.00;69253.78;5069485;28;20407;-83
2022/10/01 02:50:49;;;;;;;9.40;4.60;;;;;;;-147.98;100.00;69253.78;5071050;28;20419;-83
2022/10/01 02:53:27;;;;;;;9.38;4.47;;;;;;;-147.98;100.00;69253.78;5068569;28;20419;-84
2022/10/01 02:56:03;;;;;;;8.43;4.60;;;;;;;-147.98;100.00;69253.78;5048034;28;20412;-84
2022/10/01 02:58:30;;;;;;;8.07;4.20;;;;;;;-147.98;100.00;69253.78;5046572;28;20694;-84
2022/10/01 03:01:05;;;;;;;8.43;4.45;;;;;;;-147.98;100.00;69253.78;5046135;28;20789;-84
2022/10/01 03:03:41;;;;;;;11.68;4.38;;;;;;;-147.98;100.00;69253.78;5066457;28;20784;-84
2022/10/01 03:06:15;;;;;;;9.68;4.38;;;;;;;-147.98;100.00;69253.78;5060486;28;20432;-84
2022/10/01 03:08:48;;;;;;;8.93;4.47;;;;;;;-147.98;100.00;69253.78;5048562;28;20428;-84
2022/10/01 03:11:21;;;;;;;6.90;4.10;;;;;;;-147.98;100.00;69253.78;5068025;28;20750;-84
2022/10/01 03:13:49;;;;;;;8.10;4.35;;;;;;;-147.98;100.00;69253.78;5070473;28;20416;-84
2022/10/01 03:16:17;;;;;;;8.27;4.22;;;;;;;-147.98;100.00;69253.78;5069530;28;20411;-84
2022/10/01 03:18:52;;;;;;;8.00;3.90;;;;;;;-147.98;100.00;69253.78;5066981;28;20453;-85
2022/10/01 03:21:20;;;;;;;7.10;4.10;;;;;;;-147.98;100.00;69253.78;5072515;28;20409;-84
2022/10/01 03:23:53;;;;;;;8.80;4.40;;;;;;;-147.98;100.00;69253.78;5064848;28;20881;-84
2022/10/01 03:26:21;;;;;;;10.52;4.25;;;;;;;-147.98;100.00;69253.78;5066553;28;20419;-84
2022/10/01 03:28:54;;;;;;;8.87;4.50;;;;;;;-147.98;100.00;69253.78;5061980;28;20423;-84
2022/10/01 03:31:28;;;;;;;6.55;4.00;;;;;;;-147.98;100.00;69253.78;5068676;28;20427;-84
2022/10/01 03:34:02;;;;;;;6.95;3.90;;;;;;;-147.98;100.00;69253.78;5068896;28;20418;-84
2022/10/01 03:36:30;;;;;;;8.50;3.97;;;;;;;-147.98;100.00;69253.78;5068406;28;20404;-84
2022/10/01 03:39:04;;;;;;;8.57;4.10;;;;;;;-147.98;100.00;69253.78;5065439;28;20416;-84
2022/10/01 03:41:32;;;;;;;8.45;4.15;;;;;;;-147.98;100.00;69253.78;5053505;28;20524;-84
2022/10/01 03:44:06;;;;;;;8.32;4.07;;;;;;;-147.98;100.00;69253.78;5064341;28;20422;-84
2022/10/01 03:46:39;;;;;;;8.50;3.90;;;;;;;-147.98;100.00;69253.78;5066134;28;20421;-85
2022/10/01 03:49:13;;;;;;;7.88;3.95;;;;;;;-147.98;100.00;69253.78;5061394;28;20413;-85
2022/10/01 03:51:46;;;;;;;7.97;4.20;;;;;;;-147.98;100.00;69253.78;5057364;28;20466;-84
2022/10/01 03:54:20;;;;;;;7.28;3.88;;;;;;;-147.98;100.00;69253.78;5061626;28;20417;-84
2022/10/01 03:56:48;;;;;;;7.80;4.20;;;;;;;-147.98;100.00;69253.78;5067211;28;20482;-84
2022/10/01 03:59:22;;;;;;;7.45;4.10;;;;;;;-147.98;100.00;69253.78;5050570;28;20424;-85
2022/10/01 04:01:50;;;;;;;7.53;3.90;;;;;;;-147.98;100.00;69253.78;5072768;28;20410;-84
2022/10/01 04:04:24;;;;;;;12.10;3.78;;;;;;;-147.98;100.00;69253.78;5054765;28;20419;-85
2022/10/01 04:06:58;;;;;;;8.10;3.95;;;;;;;-147.98;100.00;69253.78;5067623;28;20430;-84
2022/10/01 04:09:31;;;;;;;6.25;3.60;;;;;;;-147.98;100.00;69253.78;5050562;28;21175;-84
2022/10/01 04:11:59;;;;;;;7.05;3.78;;;;;;;-147.98;100.00;69253.78;5072179;28;20875;-84
2022/10/01 04:14:32;;;;;;;6.60;3.70;;;;;;;-147.98;100.00;69253.78;5088463;28;20438;-84
2022/10/01 04:17:05;;;;;;;6.93;3.80;;;;;;;-147.98;100.00;69253.78;5055611;28;20919;-85
2022/10/01 04:19:35;;;;;;;7.93;3.70;;;;;;;-147.98;100.00;69253.78;5073604;28;20447;-84
2022/10/01 04:22:03;;;;;;;7.40;3.70;;;;;;;-147.98;100.00;69253.78;5088465;28;20419;-83
2022/10/01 04:24:36;;;;;;;6.43;3.63;;;;;;;-147.98;100.00;69253.78;5065876;28;20426;-84
2022/10/01 04:27:09;;;;;;;6.32;3.42;;;;;;;-147.98;100.00;69253.78;5072192;28;20416;-84
2022/10/01 04:29:42;;;;;;;6.13;3.50;;;;;;;-147.98;100.00;69253.78;5065808;28;21022;-84
2022/10/01 04:32:20;;;;;;;10.50;4.00;;;;;;;-147.98;100.00;69253.78;5069651;28;20419;-83
2022/10/01 04:34:54;;;;;;;9.18;4.10;;;;;;;-147.98;100.00;69253.78;5067363;28;20411;-85
2022/10/01 04:37:28;;;;;;;8.35;3.83;;;;;;;-147.98;100.00;69253.78;5066146;28;20415;-84
2022/10/01 04:40:01;;;;;;;9.43;4.35;;;;;;;-147.98;100.00;69253.78;5073296;28;20411;-84
2022/10/01 04:42:34;;;;;;;8.60;3.97;;;;;;;-147.98;100.00;69253.78;5072586;28;20419;-84
2022/10/01 04:45:10;;;;;;;6.75;3.70;;;;;;;-147.98;100.00;69253.78;5065177;28;20433;-84
2022/10/01 04:47:51;;;;;;;5.93;3.50;;;;;;;-147.98;100.00;69253.78;5087740;28;20415;-84
2022/10/01 04:50:26;;;;;;;7.07;3.72;;;;;;;-147.98;100.00;69253.78;5051160;28;20433;-84
2022/10/01 04:52:59;;;;;;;8.90;4.70;;;;;;;-147.98;100.00;69253.78;5070000;28;20407;-84
2022/10/01 04:55:33;;;;;;;7.30;4.40;;;;;;;-147.98;100.00;69253.78;5069059;28;20896;-84
2022/10/01 04:58:06;;;;;;;6.63;4.07;;;;;;;-147.98;100.00;69253.78;5075439;28;20427;-84
2022/10/01 05:00:39;;;;;;;7.50;4.10;;;;;;;-147.98;100.00;69253.78;5055434;28;20430;-86
2022/10/01 05:03:12;;;;;;;7.60;4.55;;;;;;;-147.98;100.00;69253.78;5080035;28;20432;-85
2022/10/01 05:05:47;;;;;;;8.57;4.95;;;;;;;-147.98;100.00;69253.78;5045872;28;20416;-85
2022/10/01 05:08:15;;;;;;;10.18;4.72;;;;;;;-147.98;100.00;69253.78;5061389;28;20404;-84
2022/10/01 05:10:48;;;;;;;9.18;4.72;;;;;;;-147.98;100.00;69253.78;5065695;28;20415;-85
2022/10/01 05:13:21;;;;;;;11.10;5.03;;;;;;;-147.98;100.00;69253.78;5062011;28;20431;-85
2022/10/01 05:15:50;;;;;;;8.82;4.80;;;;;;;-147.98;100.00;69253.78;5054322;28;20422;-86
2022/10/01 05:18:19;;;;;;;8.25;4.70;;;;;;;-147.98;100.00;69253.78;5072432;28;20410;-86
2022/10/01 05:20:53;;;;;;;8.70;4.60;;;;;;;-147.98;100.00;69253.78;5048427;28;20417;-85
2022/10/01 05:23:21;;;;;;;8.40;4.75;;;;;;;-147.98;100.00;69253.78;5062454;28;20424;-86
2022/10/01 05:25:49;;;;;;;8.20;4.77;;;;;;;-147.98;100.00;69253.78;5083090;28;20412;-86
2022/10/01 05:28:23;;;;;;;8.43;4.55;;;;;;;-147.98;100.00;69253.78;5064026;28;20421;-84
2022/10/01 05:30:59;;;;;;;8.40;4.80;;;;;;;-147.98;100.00;69253.78;5067373;28;20431;-85
2022/10/01 05:33:33;;;;;;;12.30;5.20;;;;;;;-147.98;100.00;69253.78;5069107;28;20425;-86
2022/10/01 05:36:08;;;;;;;10.68;5.25;;;;;;;-147.98;100.00;69253.78;5067963;28;20419;-86
2022/10/01 05:38:41;;;;;;;8.48;4.82;;;;;;;-147.98;100.00;69253.78;5053168;28;20427;-85
2022/10/01 05:41:15;;;;;;;9.27;5.30;;;;;;;-147.98;100.00;69253.78;5072284;28;20423;-85
2022/10/01 05:43:43;;;;;;;8.80;4.97;;;;;;;-147.98;100.00;69253.78;5072332;28;20412;-86
2022/10/01 05:46:16;;;;;;;8.68;5.13;;;;;;;-147.98;100.00;69253.78;5070439;28;20423;-86
2022/10/01 05:48:50;;;;;;;9.80;4.93;;;;;;;-147.98;100.00;69253.78;5061734;28;20425;-85
2022/10/01 05:51:24;;;;;;;8.75;5.28;;;;;;;-147.98;100.00;69253.78;5070757;28;20423;-85
2022/10/01 05:53:53;;;;;;;8.80;4.72;;;;;;;-147.98;100.00;69253.78;5053782;28;20416;-85
2022/10/01 05:56:27;;;;;;;10.77;4.65;;;;;;;-147.98;100.00;69253.78;5053499;28;20423;-85
2022/10/01 05:58:55;;;;;;;7.90;4.77;;;;;;;-147.98;100.00;69253.78;5053968;28;20419;-85
2022/10/01 06:01:28;;;;;;;7.97;4.80;;;;;;;-147.98;100.00;69253.78;5068208;28;20419;-85
2022/10/01 06:04:01;;;;;;;8.23;4.63;;;;;;;-147.98;100.00;69253.78;5060313;28;20413;-84
2022/10/01 06:06:36;;;;;;;11.07;4.70;;;;;;;-147.98;100.00;69253.78;5057623;28;20426;-85
2022/10/01 06:09:09;;;;;;;8.00;4.50;;;;;;;-147.98;100.00;69253.78;5066011;28;20912;-84
2022/10/01 06:11:42;;;;;;;7.38;4.47;;;;;;;-147.98;100.00;69253.78;5068606;28;20918;-85
2022/10/01 06:14:11;;;;;;;9.77;4.55;;;;;;;-147.98;100.00;69253.78;5045666;28;20436;-85
2022/10/01 06:16:45;;;;;;;8.23;4.35;;;;;;;-147.98;100.00;69253.78;5047797;28;20540;-85
2022/10/01 06:19:18;;;;;;;7.95;4.38;;;;;;;-147.98;100.00;69253.78;5078275;28;20946;-85
2022/10/01 06:21:53;;;;;;;7.32;4.40;;;;;;;-147.98;100.00;69253.78;5071316;28;20425;-85
2022/10/01 06:24:26;;;;;;;8.50;4.50;;;;;;;-147.98;100.00;69253.78;5064951;28;20523;-85
2022/10/01 06:26:55;;;;;;;8.87;4.40;;;;;;;-147.98;100.00;69253.78;5047483;28;20423;-84
2022/10/01 06:29:28;;;;;;;8.30;4.40;;;;;;;-147.98;100.00;69253.78;5067266;28;20437;-84
2022/10/01 06:32:01;;;;;;;7.90;4.60;;;;;;;-147.98;100.00;69253.78;5049001;28;20931;-84
2022/10/01 06:34:30;;;;;;;9.15;4.65;;;;;;;-147.98;100.00;69253.78;5067779;28;20428;-84
2022/10/01 06:36:59;;;;;;;7.97;4.93;;;;;;;-147.98;100.00;69253.78;5066351;28;20438;-85
2022/10/01 06:39:27;;;;;;;7.88;5.22;;;;;;;-147.98;100.00;69253.78;5084081;28;20432;-84
2022/10/01 06:42:00;;;;;;;7.87;4.70;;;;;;;-147.98;100.00;69253.78;5037888;28;20425;-83
2022/10/01 06:44:34;;;;;;;9.10;4.88;;;;;;;-147.98;100.00;69253.78;5060412;28;20442;-83
2022/10/01 06:47:07;;;;;;;9.27;4.50;;;;;;;-147.98;100.00;69253.78;5078453;28;20450;-84
2022/10/01 06:49:40;;;;;;;8.20;4.70;;;;;;;-147.98;100.00;69253.78;5071403;28;20421;-83
2022/10/01 06:55:01;;;;;;;8.93;4.53;;;;;;;-147.98;100.00;69253.78;5063843;28;20427;-83
2022/10/01 06:57:35;;;;;;;8.63;4.70;;;;;;;-147.98;100.00;69253.78;5063870;28;20421;-84
2022/10/01 07:00:08;;;;;;;8.05;4.68;;;;;;;-147.98;100.00;69253.78;5051410;28;20429;-83
2022/10/01 07:02:37;;;;;;;8.53;4.80;;;;;;;-147.98;100.00;69253.78;5039545;28;20434;-82
2022/10/01 07:05:11;;;;;;;9.10;4.85;;;;;;;-147.98;100.00;69253.78;5064037;28;20433;-83
2022/10/01 07:07:40;;;;;;;10.57;5.10;;;;;;;-147.98;100.00;69253.78;5064050;28;20929;-84
2022/10/01 07:10:14;;;;;;;8.50;4.70;;;;;;;-147.98;100.00;69253.78;5055971;28;20440;-83
2022/10/01 07:12:48;;;;;;;14.93;4.78;;;;;;;-147.98;100.00;69253.78;5060840;28;20438;-83
2022/10/01 07:15:22;;;;;;;7.78;4.57;;;;;;;-147.98;100.00;69253.78;5075698;28;20433;-82
2022/10/01 07:17:55;;;;;;;10.05;4.43;;;;;;;-147.98;100.00;69253.78;5057331;28;20416;-83
2022/10/01 07:20:24;;;;;;;11.98;4.25;;;;;;;-147.98;100.00;69253.78;5056646;28;20431;-82
2022/10/01 07:22:59;;;;;;;8.25;4.47;;;;;;;-147.98;100.00;69253.78;5059796;28;20438;-82
2022/10/01 07:25:28;;;;;;;8.48;4.13;;;;;;;-147.98;100.00;69253.78;5064635;28;20777;-82
2022/10/01 07:28:04;;;;;;;9.98;5.82;;;;;;;-147.98;100.00;69253.78;5063060;28;20423;-84
2022/10/01 07:30:39;;;;;;;11.52;6.20;;;;;;;-147.98;100.00;69253.78;5051368;28;20415;-81
2022/10/01 07:33:07;;;;;;;10.73;4.30;;;;;;;-147.98;100.00;69253.78;5068277;28;20429;-82
2022/10/01 07:35:40;;;;;;;7.03;3.90;;;;;;;-147.98;100.00;69253.78;5061650;28;20417;-82
2022/10/01 07:38:09;;;;;;;6.38;3.80;;;;;;;-147.98;100.00;69253.78;5072585;28;20424;-82
2022/10/01 07:40:43;;;;;;;10.70;3.58;;;;;;;-147.98;100.00;69253.78;5053385;28;20450;-82
2022/10/01 07:43:16;;;;;;;8.70;4.00;;;;;;;-147.98;100.00;69253.78;5064953;28;20429;-82
2022/10/01 07:45:51;;;;;;;6.68;3.90;;;;;;;-147.98;100.00;69253.78;5068370;28;20434;-81
2022/10/01 07:48:19;;;;;;;6.28;3.78;;;;;;;-147.98;100.00;69253.78;5088971;28;20432;-81
2022/10/01 07:50:52;;;;;;;11.80;3.70;;;;;;;-147.98;100.00;69253.78;5079017;28;20433;-82
2022/10/01 07:53:23;;;;;;;8.30;3.80;;;;;;;-147.98;100.00;69253.78;5055536;28;20495;-82
2022/10/01 07:56:00;;;;;;;12.70;5.25;;;;;;;-147.98;100.00;69253.78;5057620;28;20430;-83
2022/10/01 07:58:34;;;;;;;8.10;4.00;;;;;;;-147.98;100.00;69253.78;5072111;28;20427;-81
2022/10/01 08:01:08;;;;;;;10.13;4.10;;;;;;;-147.98;100.00;69253.78;5055197;28;20428;-82
2022/10/01 08:03:41;;;;;;;8.13;3.92;;;;;;;-147.98;100.00;69253.78;5066372;28;20425;-82
2022/10/01 08:06:14;;;;;;;8.52;3.88;;;;;;;-147.98;100.00;69253.78;5065953;28;20431;-82
2022/10/01 08:08:49;;;;;;;7.50;3.83;;;;;;;-147.98;100.00;69253.78;5052229;28;20420;-83
2022/10/01 08:11:23;;;;;;;8.20;3.88;;;;;;;-147.98;100.00;69253.78;5074787;28;20447;-83
2022/10/01 08:13:56;;;;;;;7.88;3.90;;;;;;;-147.98;100.00;69253.78;5082406;28;21439;-82
2022/10/01 08:16:32;;;;;;;8.00;3.90;;;;;;;-147.98;100.00;69253.78;5053324;28;20439;-83
2022/10/01 08:19:05;;;;;;;7.35;3.83;;;;;;;-147.98;100.00;69253.78;5074693;28;20431;-83
2022/10/01 08:21:39;;;;;;;8.80;3.58;;;;;;;-147.98;100.00;69253.78;5067058;28;20426;-83
2022/10/01 08:24:14;;;;;;;8.83;3.60;;;;;;;-147.98;100.00;69253.78;5082104;28;20427;-82
2022/10/01 08:26:42;;;;;;;6.72;3.30;;;;;;;-147.98;100.00;69253.78;5051509;28;20417;-83
2022/10/01 08:29:15;;;;;;;7.75;3.58;;;;;;;-147.98;100.00;69253.78;5067702;28;20421;-83
2022/10/01 08:31:44;;;;;;;8.35;3.75;;;;;;;-147.98;100.00;69253.78;5067363;28;20426;-83
2022/10/01 08:34:17;;;;;;;6.35;3.75;;;;;;;-147.98;100.00;69253.78;5053363;28;21213;-82
2022/10/01 08:36:51;;;;;;;9.23;3.88;;;;;;;-147.98;100.00;69253.78;5059823;28;20430;-83
2022/10/01 08:39:26;;;;;;;8.23;3.57;;;;;;;-147.98;100.00;69253.78;5079448;28;20426;-83
2022/10/01 08:42:02;;;;;;;6.50;3.90;;;;;;;-147.98;100.00;69253.78;5062682;28;20419;-83
2022/10/01 08:44:40;;;;;;;9.02;3.88;;;;;;;-147.98;100.00;69253.78;5061075;28;20417;-82
2022/10/01 08:47:18;;;;;;;6.60;3.40;;;;;;;-147.98;100.00;69253.78;5063075;28;20428;-82
2022/10/01 08:49:56;;;;;;;8.53;3.63;;;;;;;-147.98;100.00;69253.78;5051162;28;20870;-83
2022/10/01 08:52:33;;;;;;;6.73;3.57;;;;;;;-147.98;100.00;69253.78;5062477;28;20956;-83
2022/10/01 08:55:14;;;;;;;5.95;3.33;;;;;;;-147.98;100.00;69253.78;5049501;28;20913;-84
2022/10/01 08:57:48;;;;;;;6.57;3.30;;;;;;;-147.98;100.00;69253.78;5068733;28;20414;-84
2022/10/01 09:00:22;;;;;;;7.10;3.60;;;;;;;-147.98;100.00;69253.78;5053190;28;20420;-83
2022/10/01 09:02:51;;;;;;;6.13;3.25;;;;;;;-147.98;100.00;69253.78;5052574;28;20423;-82
2022/10/01 09:05:36;;;;;;;7.07;3.50;;;;;;;-147.98;100.00;69253.78;5053326;28;20408;-82
2022/10/01 09:08:18;;;;;;;8.68;3.13;;;;;;;-147.98;100.00;69253.78;5067736;28;20428;-82
2022/10/01 09:11:00;;;;;;;5.40;2.88;;;;;;;-147.98;100.00;69253.78;5061310;28;20801;-83
2022/10/01 09:13:53;;;;;;;4.83;2.80;;;;;;;-147.98;100.00;69253.78;5058704;28;20476;-82
2022/10/01 09:16:26;;;;;;;6.05;3.00;;;;;;;-147.98;100.00;69253.78;5069846;28;20423;-82
2022/10/01 09:19:08;;;;;;;5.57;2.95;;;;;;;-147.98;100.00;69253.78;5054230;28;20423;-83
2022/10/01 09:21:50;;;;;;;5.95;2.80;;;;;;;-147.98;100.00;69253.78;5059100;28;20865;-82
2022/10/01 09:24:40;;;;;;;5.00;2.70;;;;;;;-147.98;100.00;69253.78;5061614;28;20429;-83
2022/10/01 09:27:17;;;;;;;4.75;2.53;;;;;;;-147.98;100.00;69253.78;5068590;28;20411;-81
2022/10/01 09:29:54;;;;;;;6.43;2.88;;;;;;;-147.98;100.00;69253.78;5057547;28;20429;-81
2022/10/01 09:32:36;;;;;;;4.27;2.50;;;;;;;-147.98;100.00;69253.78;5067243;28;20428;-82
2022/10/01 09:35:20;;;;;;;4.22;2.42;;;;;;;-147.98;100.00;69253.78;5044036;28;20433;-82
2022/10/01 09:37:54;;;;;;;4.10;2.50;;;;;;;-147.98;100.00;69253.78;5075580;28;20432;-80
2022/10/01 09:40:35;;;;;;;4.07;2.40;;;;;;;-147.98;100.00;69253.78;5052188;28;20426;-83
2022/10/01 09:43:11;;;;;;;4.45;2.30;;;;;;;-147.98;100.00;69253.78;5046961;28;20422;-81
2022/10/01 09:45:45;;;;;;;5.15;2.30;;;;;;;-147.98;100.00;69253.78;5066307;28;20431;-82
2022/10/01 09:48:23;;;;;;;3.88;2.30;;;;;;;-147.98;100.00;69253.78;5051300;28;20423;-81
2022/10/01 09:51:01;;;;;;;3.90;2.35;;;;;;;-147.98;100.00;69253.78;5031001;28;20446;-81
2022/10/01 09:53:36;;;;;;;3.30;2.05;;;;;;;-147.98;100.00;69253.78;5048780;28;20427;-81
2022/10/01 09:56:16;;;;;;;3.80;2.25;;;;;;;-147.98;100.00;69253.78;5048348;28;20436;-81
2022/10/01 09:58:51;;;;;;;4.78;2.47;;;;;;;-147.98;100.00;69253.78;5049135;28;20420;-81
2022/10/01 10:01:35;;;;;;;3.40;2.10;;;;;;;-147.98;100.00;69253.78;5042976;28;21253;-81
2022/10/01 10:04:09;;;;;;;3.67;2.28;;;;;;;-147.98;100.00;69253.78;5043913;28;20432;-81
2022/10/01 10:06:42;;;;;;;3.47;2.25;;;;;;;-147.98;100.00;69253.78;5067426;28;20427;-80
2022/10/01 10:09:15;;;;;;;4.13;2.30;;;;;;;-147.98;100.00;69253.78;5032597;28;20431;-80
2022/10/01 10:11:48;;;;;;;4.30;2.13;;;;;;;-147.98;100.00;69253.78;5063530;28;20442;-81
2022/10/01 10:14:29;;;;;;;4.53;2.13;;;;;;;-147.98;100.00;69253.78;5055966;28;20427;-82
2022/10/01 10:17:05;;;;;;;2.92;2.00;;;;;;;-147.98;100.00;69253.78;5028051;28;20427;-82
2022/10/01 10:19:40;;;;;;;5.13;2.22;;;;;;;-147.98;100.00;69253.78;5030315;28;20446;-82
2022/10/01 10:22:22;;;;;;;4.40;2.50;;;;;;;-147.98;100.00;69253.78;5045162;28;20451;-81
2022/10/01 10:24:57;;;;;;;4.20;2.30;;;;;;;-147.98;100.00;69253.78;5041399;28;20427;-82
2022/10/01 10:27:27;;;;;;;4.90;2.35;;;;;;;-147.98;100.00;69253.78;5041892;28;20427;-82
2022/10/01 10:30:13;;;;;;;4.80;2.50;;;;;;;-147.98;100.00;69253.78;5045068;28;20429;-82
2022/10/01 10:32:49;;;;;;;3.35;2.28;;;;;;;-147.98;100.00;69253.78;5047280;28;20428;-83
2022/10/01 10:35:20;;;;;;;4.30;2.30;;;;;;;-147.98;100.00;69253.78;5048255;28;20427;-80
2022/10/01 10:37:56;;;;;;;4.90;2.47;;;;;;;-147.98;100.00;69253.78;5028506;28;20419;-81
2022/10/01 10:40:46;;;;;;;3.90;2.30;;;;;;;-147.98;100.00;69253.78;5025664;28;20447;-83
2022/10/01 10:43:22;;;;;;;4.45;2.65;;;;;;;-147.98;100.00;69253.78;5041894;28;21096;-81
2022/10/01 10:45:58;;;;;;;4.63;2.95;;;;;;;-147.98;100.00;69253.78;5029708;28;20438;-81
2022/10/01 10:48:36;;;;;;;5.82;3.00;;;;;;;-147.98;100.00;69253.78;5041741;28;21767;-82
2022/10/01 10:51:09;;;;;;;4.95;3.00;;;;;;;-147.98;100.00;69253.78;5026358;28;20427;-81
2022/10/01 10:53:45;;;;;;;5.90;3.10;;;;;;;-147.98;100.00;69253.78;5026720;28;20427;-82
2022/10/01 10:56:21;;;;;;;6.70;3.35;;;;;;;-147.98;100.00;69253.78;5048291;28;21002;-82
2022/10/01 10:58:54;;;;;;;6.22;3.40;;;;;;;-147.98;100.00;69253.78;5027262;28;20463;-81
2022/10/01 11:01:30;;;;;;;7.45;3.38;;;;;;;-147.98;100.00;69253.78;5026783;28;20471;-81
2022/10/01 11:04:19;;;;;;;7.97;3.50;;;;;;;-147.98;100.00;69253.78;5025085;28;20408;-81
2022/10/01 11:06:55;;;;;;;5.50;3.40;;;;;;;-147.98;100.00;69253.78;5027818;28;20415;-82
2022/10/01 11:09:42;;;;;;;7.93;4.38;;;;;;;-147.98;100.00;69253.78;5019559;28;20493;-80
2022/10/01 11:12:25;;;;;;;6.72;3.70;;;;;;;-147.98;100.00;69253.78;5041151;28;20985;-81
2022/10/01 11:15:09;;;;;;;6.38;3.47;;;;;;;-147.98;100.00;69253.78;5043354;28;20435;-82
2022/10/01 11:18:18;;;;;;;8.00;3.55;;;;;;;-147.98;100.00;69253.78;5023737;28;20458;-80
2022/10/01 11:21:07;;;;;;;7.97;3.97;;;;;;;-147.98;100.00;69253.78;5036361;28;20438;-82
2022/10/01 11:23:59;;;;;;;9.13;4.47;;;;;;;-147.98;100.00;69253.78;5021473;28;20443;-82
2022/10/01 11:26:44;;;;;;;9.37;4.87;;;;;;;-147.98;100.00;69253.78;5025443;28;20784;-81
2022/10/01 11:29:30;;;;;;;9.17;4.03;;;;;;;-147.98;100.00;69253.78;5049010;28;20443;-82
2022/10/01 11:32:18;;;;;;;6.78;3.70;;;;;;;-147.98;100.00;69253.78;5019495;28;20435;-80
2022/10/01 11:35:03;;;;;;;8.33;3.57;;;;;;;-147.98;100.00;69253.78;5017694;28;20435;-81
2022/10/01 11:37:49;;;;;;;9.90;4.65;;;;;;;-147.98;100.00;69253.78;5038461;28;20424;-80
2022/10/01 11:40:28;;;;;;;6.22;3.30;;;;;;;-147.98;100.00;69253.78;5051397;28;21097;-81
2022/10/01 11:43:26;;;;;;;6.30;3.60;;;;;;;-147.98;100.00;69253.78;5034726;28;20427;-81
2022/10/01 11:46:08;;;;;;;6.85;3.88;;;;;;;-147.98;100.00;69253.78;5024010;28;20499;-81
2022/10/01 11:48:45;;;;;;;6.82;3.60;;;;;;;-147.98;100.00;69253.78;5036883;28;21081;-80